createdAt,value
2022-10-22T00:02:19.751Z,4.72
2022-10-22T00:04:51.898Z,3.80
2022-10-22T00:07:22.461Z,4.95
2022-10-22T00:09:52.116Z,4.00
2022-10-22T00:12:22.928Z,5.47
2022-10-22T00:14:52.398Z,3.17
2022-10-22T00:17:22.075Z,4.38
2022-10-22T00:19:52.836Z,4.72
2022-10-22T00:22:22.182Z,3.65
2022-10-22T00:24:51.552Z,6.38
2022-10-22T00:27:20.936Z,6.15
2022-10-22T00:29:50.335Z,4.32
2022-10-22T00:32:19.820Z,4.10
2022-10-22T00:34:49.202Z,6.30
2022-10-22T00:37:19.906Z,3.28
2022-10-22T00:39:49.294Z,4.07
2022-10-22T00:42:24.265Z,3.13
2022-10-22T00:45:17.403Z,7.43
2022-10-22T00:47:58.978Z,4.30
2022-10-22T00:50:37.879Z,2.05
2022-10-22T00:53:15.510Z,2.95
2022-10-22T00:55:48.019Z,2.65
2022-10-22T00:58:21.206Z,5.13
2022-10-22T01:00:50.939Z,4.28
2022-10-22T01:03:20.911Z,3.25
2022-10-22T01:05:59.558Z,5.88
2022-10-22T01:08:40.377Z,3.45
2022-10-22T01:11:19.684Z,4.82
2022-10-22T01:13:59.740Z,4.07
2022-10-22T01:16:38.885Z,3.13
2022-10-22T01:19:39.784Z,4.55
2022-10-22T01:22:22.121Z,2.47
2022-10-22T01:25:07.256Z,2.53
2022-10-22T01:28:05.422Z,4.65
2022-10-22T01:30:38.608Z,3.67
2022-10-22T01:35:45.057Z,3.47
2022-10-22T01:38:20.222Z,3.50
2022-10-22T01:40:50.654Z,3.40
2022-10-22T01:43:20.558Z,3.55
2022-10-22T01:45:58.010Z,5.25
2022-10-22T01:48:45.549Z,1.77
2022-10-22T01:51:47.154Z,3.17
2022-10-22T01:54:31.211Z,2.63
2022-10-22T01:57:13.368Z,2.13
2022-10-22T01:59:58.837Z,2.92
2022-10-22T02:02:44.852Z,3.53
2022-10-22T02:05:22.560Z,6.25
2022-10-22T02:07:59.100Z,4.97
2022-10-22T02:10:30.955Z,4.25
2022-10-22T02:13:02.496Z,1.63
2022-10-22T02:15:34.383Z,2.92
2022-10-22T02:18:07.795Z,3.60
2022-10-22T02:20:40.037Z,5.57
2022-10-22T02:23:10.959Z,3.95
2022-10-22T02:25:45.583Z,3.60
2022-10-22T02:28:21.201Z,2.38
2022-10-22T02:30:58.172Z,4.00
2022-10-22T02:33:35.101Z,2.35
2022-10-22T02:36:06.624Z,4.22
2022-10-22T02:38:37.423Z,1.80
2022-10-22T02:41:07.346Z,2.55
2022-10-22T02:43:43.327Z,4.72
2022-10-22T02:46:13.402Z,3.30
2022-10-22T02:48:44.116Z,3.42
2022-10-22T02:51:13.867Z,2.60
2022-10-22T02:53:43.442Z,2.15
2022-10-22T02:56:14.118Z,3.60
2022-10-22T02:58:43.619Z,2.63
2022-10-22T03:01:15.415Z,2.53
2022-10-22T03:03:47.189Z,3.25
2022-10-22T03:06:17.029Z,3.63
2022-10-22T03:08:47.154Z,3.85
2022-10-22T03:11:16.747Z,2.63
2022-10-22T03:13:46.159Z,4.28
2022-10-22T03:16:15.522Z,3.28
2022-10-22T03:18:46.233Z,5.43
2022-10-22T03:21:29.720Z,2.05
2022-10-22T03:24:01.425Z,4.78
2022-10-22T03:26:31.036Z,5.22
2022-10-22T03:29:01.137Z,4.15
2022-10-22T03:31:30.528Z,3.10
2022-10-22T03:34:01.316Z,3.47
2022-10-22T03:36:30.836Z,2.15
2022-10-22T03:39:01.041Z,8.07
2022-10-22T03:41:30.580Z,2.22
2022-10-22T03:44:02.714Z,6.75
2022-10-22T03:46:32.243Z,4.57
2022-10-22T03:49:03.018Z,2.58
2022-10-22T03:51:32.381Z,2.30
2022-10-22T03:54:01.877Z,2.25
2022-10-22T03:56:31.322Z,3.28
2022-10-22T03:59:02.199Z,3.83
2022-10-22T04:01:32.111Z,2.60
2022-10-22T04:04:03.367Z,2.92
2022-10-22T04:06:32.921Z,1.92
2022-10-22T04:09:02.556Z,3.92
2022-10-22T04:11:32.146Z,4.00
2022-10-22T04:14:01.603Z,2.13
2022-10-22T04:16:32.769Z,2.63
2022-10-22T04:19:03.699Z,3.20
2022-10-22T04:21:33.421Z,1.05
2022-10-22T04:24:03.240Z,0.93
2022-10-22T04:26:32.841Z,1.05
2022-10-22T04:29:02.299Z,0.93
2022-10-22T04:31:31.644Z,0.82
2022-10-22T04:34:03.320Z,2.75
2022-10-22T04:36:32.681Z,1.75
2022-10-22T04:39:04.110Z,1.75
2022-10-22T04:41:37.772Z,2.25
2022-10-22T04:44:12.280Z,2.05
2022-10-22T04:46:46.457Z,0.98
2022-10-22T04:49:17.188Z,1.27
2022-10-22T04:51:46.593Z,3.42
2022-10-22T04:54:16.270Z,1.08
2022-10-22T04:56:45.651Z,1.92
2022-10-22T04:59:15.207Z,0.28
2022-10-22T05:01:46.356Z,0.93
2022-10-22T05:04:20.298Z,1.30
2022-10-22T05:06:49.756Z,0.73
2022-10-22T05:09:22.145Z,3.33
2022-10-22T05:11:53.666Z,1.60
2022-10-22T05:14:26.130Z,1.13
2022-10-22T05:16:55.854Z,2.17
2022-10-22T05:19:29.304Z,0.82
2022-10-22T05:22:02.146Z,0.55
2022-10-22T05:27:12.373Z,0.63
2022-10-22T05:29:46.782Z,1.75
2022-10-22T05:32:16.181Z,1.25
2022-10-22T05:34:47.272Z,1.25
2022-10-22T05:37:16.626Z,2.13
2022-10-22T05:39:46.065Z,1.65
2022-10-22T05:42:15.528Z,0.70
2022-10-22T05:44:45.653Z,1.08
2022-10-22T05:47:15.173Z,2.05
2022-10-22T05:49:45.920Z,1.10
2022-10-22T05:52:15.361Z,1.50
2022-10-22T05:54:44.869Z,1.33
2022-10-22T05:57:14.421Z,0.77
2022-10-22T05:59:43.917Z,1.45
2022-10-22T06:02:13.702Z,0.75
2022-10-22T06:04:43.487Z,2.08
2022-10-22T06:07:17.049Z,1.13
2022-10-22T06:09:47.621Z,2.22
2022-10-22T06:12:17.040Z,0.82
2022-10-22T06:14:46.630Z,1.10
2022-10-22T06:17:16.221Z,0.47
2022-10-22T06:19:45.653Z,2.10
2022-10-22T06:22:16.554Z,2.28
2022-10-22T06:24:45.900Z,2.40
2022-10-22T06:27:15.338Z,1.60
2022-10-22T06:29:44.874Z,1.25
2022-10-22T06:32:14.776Z,0.73
2022-10-22T06:34:44.181Z,1.13
2022-10-22T06:37:15.401Z,0.98
2022-10-22T06:39:45.008Z,2.33
2022-10-22T06:42:14.376Z,0.65
2022-10-22T06:44:44.339Z,0.98
2022-10-22T06:47:13.829Z,2.53
2022-10-22T06:49:43.657Z,1.85
2022-10-22T06:52:14.984Z,1.05
2022-10-22T06:54:44.446Z,0.22
2022-10-22T06:57:13.942Z,0.60
2022-10-22T06:59:43.289Z,0.47
2022-10-22T07:02:12.645Z,2.22
2022-10-22T07:04:42.005Z,0.55
2022-10-22T07:07:11.380Z,1.63
2022-10-22T07:09:45.321Z,1.98
2022-10-22T07:12:14.751Z,2.03
2022-10-22T07:14:44.319Z,4.88
2022-10-22T07:17:13.704Z,1.45
2022-10-22T07:19:43.622Z,1.48
2022-10-22T07:22:13.509Z,0.98
2022-10-22T07:24:44.293Z,2.35
2022-10-22T07:27:13.829Z,1.52
2022-10-22T07:29:43.293Z,3.55
2022-10-22T07:32:13.591Z,2.70
2022-10-22T07:34:43.979Z,2.10
2022-10-22T07:37:13.441Z,2.80
2022-10-22T07:39:46.565Z,2.95
2022-10-22T07:42:16.442Z,3.35
2022-10-22T07:44:46.088Z,1.58
2022-10-22T07:47:15.569Z,4.25
2022-10-22T07:49:44.973Z,1.30
2022-10-22T07:52:14.490Z,2.53
2022-10-22T07:54:45.234Z,1.83
2022-10-22T07:57:14.707Z,5.00
2022-10-22T07:59:44.203Z,1.23
2022-10-22T08:02:14.058Z,3.55
2022-10-22T08:04:43.517Z,1.48
2022-10-22T08:07:12.897Z,3.50
2022-10-22T08:09:42.262Z,11.18
2022-10-22T08:12:12.989Z,2.08
2022-10-22T08:14:42.386Z,3.05
2022-10-22T08:17:11.916Z,4.53
2022-10-22T08:19:41.309Z,4.53
2022-10-22T08:22:11.004Z,5.90
2022-10-22T08:24:41.192Z,3.60
2022-10-22T08:27:12.126Z,4.22
2022-10-22T08:29:41.726Z,3.92
2022-10-22T08:32:11.185Z,4.30
2022-10-22T08:34:41.034Z,1.73
2022-10-22T08:37:14.174Z,2.63
2022-10-22T08:39:43.640Z,3.53
2022-10-22T08:43:21.080Z,4.38
2022-10-22T08:46:11.556Z,3.95
2022-10-22T08:48:47.830Z,2.80
2022-10-22T08:51:21.539Z,2.85
2022-10-22T08:54:23.901Z,5.00
2022-10-22T08:57:23.918Z,2.55
2022-10-22T09:00:03.207Z,2.63
2022-10-22T09:02:44.878Z,1.83
2022-10-22T09:05:30.461Z,1.77
2022-10-22T09:07:59.993Z,1.52
2022-10-22T09:10:37.753Z,1.98
2022-10-22T09:13:11.438Z,2.13
2022-10-22T09:15:43.716Z,1.20
2022-10-22T09:18:32.064Z,2.42
2022-10-22T09:21:16.653Z,6.18
2022-10-22T09:24:05.434Z,0.98
2022-10-22T09:26:41.880Z,1.40
2022-10-22T09:29:22.501Z,2.60
2022-10-22T09:31:52.049Z,1.27
2022-10-22T09:34:22.941Z,2.50
2022-10-22T09:37:01.018Z,1.80
2022-10-22T09:39:35.209Z,2.85
2022-10-22T09:42:05.523Z,3.58
2022-10-22T09:44:38.827Z,2.60
2022-10-22T09:47:42.772Z,1.90
2022-10-22T09:50:31.044Z,2.08
2022-10-22T09:53:07.130Z,1.58
2022-10-22T09:55:39.456Z,1.83
2022-10-22T09:58:14.879Z,2.67
2022-10-22T10:00:53.467Z,1.52
2022-10-22T10:03:27.975Z,2.30
2022-10-22T10:06:05.036Z,1.40
2022-10-22T10:08:35.819Z,2.17
2022-10-22T10:11:13.142Z,6.80
2022-10-22T10:13:55.369Z,1.13
2022-10-22T10:16:48.149Z,3.80
2022-10-22T10:19:50.447Z,0.90
2022-10-22T10:22:42.003Z,1.55
2022-10-22T10:25:34.384Z,1.10
2022-10-22T10:28:23.073Z,1.02
2022-10-22T10:31:04.931Z,3.08
2022-10-22T10:33:48.597Z,1.50
2022-10-22T10:36:28.368Z,1.33
2022-10-22T10:39:04.621Z,1.63
2022-10-22T10:41:53.168Z,0.55
2022-10-22T10:44:59.573Z,1.05
2022-10-22T10:48:02.836Z,2.28
2022-10-22T10:50:54.597Z,1.60
2022-10-22T10:53:46.433Z,1.52
2022-10-22T10:56:39.201Z,3.08
2022-10-22T11:00:05.455Z,3.78
2022-10-22T11:03:33.719Z,1.02
2022-10-22T11:06:09.053Z,0.85
2022-10-22T11:08:45.340Z,0.60
2022-10-22T11:11:22.705Z,1.30
2022-10-22T11:13:58.948Z,1.33
2022-10-22T11:16:36.623Z,1.13
2022-10-22T11:19:22.575Z,7.35
2022-10-22T11:22:05.151Z,1.80
2022-10-22T11:24:44.708Z,7.22
2022-10-22T11:27:28.208Z,10.05
2022-10-22T11:30:04.498Z,0.32
2022-10-22T11:32:35.372Z,2.72
2022-10-22T11:35:10.615Z,2.45
2022-10-22T11:37:42.064Z,0.80
2022-10-22T11:40:21.467Z,1.08
2022-10-22T11:42:56.015Z,1.20
2022-10-22T11:45:35.282Z,2.60
2022-10-22T11:48:20.014Z,1.33
2022-10-22T11:50:54.941Z,1.85
2022-10-22T11:53:34.279Z,0.98
2022-10-22T11:56:27.820Z,2.22
2022-10-22T11:58:57.383Z,2.33
2022-10-22T12:01:31.122Z,1.30
2022-10-22T12:04:23.220Z,0.93
2022-10-22T12:07:01.022Z,4.45
2022-10-22T12:09:34.430Z,1.50
2022-10-22T12:12:15.313Z,1.67
2022-10-22T12:14:57.852Z,1.55
2022-10-22T12:17:29.874Z,2.28
2022-10-22T12:20:05.978Z,2.33
2022-10-22T12:22:38.090Z,1.33
2022-10-22T12:25:21.429Z,1.77
2022-10-22T12:27:54.924Z,4.63
2022-10-22T12:30:28.353Z,3.40
2022-10-22T12:33:01.272Z,3.03
2022-10-22T12:35:34.053Z,5.20
2022-10-22T12:40:46.039Z,1.85
2022-10-22T12:43:21.098Z,2.35
2022-10-22T12:45:51.962Z,5.78
2022-10-22T12:48:26.377Z,3.13
2022-10-22T12:51:00.032Z,2.47
2022-10-22T12:53:35.216Z,1.50
2022-10-22T12:56:13.549Z,1.73
2022-10-22T12:58:47.249Z,1.92
2022-10-22T13:01:18.937Z,1.30
2022-10-22T13:03:51.036Z,3.17
2022-10-22T13:06:27.360Z,2.28
2022-10-22T13:09:22.510Z,1.33
2022-10-22T13:12:04.650Z,1.92
2022-10-22T13:14:38.484Z,1.30
2022-10-22T13:17:15.036Z,2.80
2022-10-22T13:20:05.209Z,3.28
2022-10-22T13:22:38.179Z,1.13
2022-10-22T13:25:26.838Z,1.48
2022-10-22T13:28:01.424Z,1.13
2022-10-22T13:30:35.213Z,2.90
2022-10-22T13:33:08.103Z,3.15
2022-10-22T13:35:39.357Z,4.50
2022-10-22T13:38:18.318Z,3.22
2022-10-22T13:40:48.156Z,1.83
2022-10-22T13:43:20.443Z,3.10
2022-10-22T13:45:54.466Z,1.30
2022-10-22T13:48:26.841Z,1.10
2022-10-22T13:50:56.334Z,2.47
2022-10-22T13:53:28.993Z,2.25
2022-10-22T13:58:29.037Z,3.10
2022-10-22T14:01:02.371Z,1.75
2022-10-22T14:03:35.626Z,3.65
2022-10-22T14:06:08.350Z,3.20
2022-10-22T14:08:38.982Z,7.25
2022-10-22T14:11:11.377Z,8.73
2022-10-22T14:13:42.122Z,3.67
2022-10-22T14:16:22.725Z,3.67
2022-10-22T14:18:52.968Z,3.75
2022-10-22T14:21:22.857Z,5.72
2022-10-22T14:23:54.091Z,10.00
2022-10-22T14:26:28.089Z,4.88
2022-10-22T14:29:15.169Z,2.15
2022-10-22T14:31:45.524Z,4.45
2022-10-22T14:34:17.276Z,2.05
2022-10-22T14:36:46.629Z,2.03
2022-10-22T14:39:17.753Z,2.30
2022-10-22T14:41:47.865Z,1.52
2022-10-22T14:44:18.658Z,2.58
2022-10-22T14:46:48.058Z,2.92
2022-10-22T14:49:17.380Z,6.60
2022-10-22T14:51:46.719Z,4.30
2022-10-22T14:54:16.955Z,3.42
2022-10-22T14:56:46.482Z,2.22
2022-10-22T14:59:15.935Z,3.28
2022-10-22T15:01:46.711Z,6.50
2022-10-22T15:04:16.157Z,2.78
2022-10-22T15:06:45.604Z,4.75
2022-10-22T15:09:15.162Z,3.03
2022-10-22T15:11:44.593Z,2.60
2022-10-22T15:14:15.474Z,1.55
2022-10-22T15:16:46.256Z,3.17
2022-10-22T15:19:15.625Z,1.70
2022-10-22T15:21:45.090Z,2.85
2022-10-22T15:24:14.737Z,4.60
2022-10-22T15:26:44.229Z,3.30
2022-10-22T15:29:13.745Z,2.47
2022-10-22T15:31:48.750Z,5.20
2022-10-22T15:34:24.810Z,3.25
2022-10-22T15:36:57.871Z,3.17
2022-10-22T15:39:28.613Z,2.70
2022-10-22T15:41:58.603Z,2.20
2022-10-22T15:44:31.943Z,2.20
2022-10-22T15:47:06.306Z,2.20
2022-10-22T15:49:39.324Z,2.20
2022-10-22T15:52:09.936Z,4.75
2022-10-22T15:54:39.350Z,6.85
2022-10-22T15:57:10.674Z,5.43
2022-10-22T15:59:40.204Z,7.40
2022-10-22T16:02:11.906Z,3.00
2022-10-22T16:04:41.731Z,1.77
2022-10-22T16:07:11.204Z,3.10
2022-10-22T16:09:40.737Z,3.08
2022-10-22T16:12:11.432Z,7.28
2022-10-22T16:14:42.845Z,3.10
2022-10-22T16:17:13.885Z,4.32
2022-10-22T16:19:43.282Z,4.05
2022-10-22T16:22:13.772Z,7.03
2022-10-22T16:24:43.190Z,5.50
2022-10-22T16:27:12.649Z,8.45
2022-10-22T16:29:42.087Z,10.25
2022-10-22T16:32:13.237Z,6.72
2022-10-22T16:34:42.990Z,8.30
2022-10-22T16:37:12.529Z,10.27
2022-10-22T16:39:42.101Z,9.73
2022-10-22T16:42:11.755Z,7.32
2022-10-22T16:44:41.166Z,4.80
2022-10-22T16:47:10.610Z,4.95
2022-10-22T16:49:41.314Z,4.32
2022-10-22T16:52:10.756Z,4.25
2022-10-22T16:54:40.309Z,4.55
2022-10-22T16:57:12.258Z,3.25
2022-10-22T16:59:41.673Z,4.28
2022-10-22T17:02:12.002Z,4.65
2022-10-22T17:04:42.761Z,4.93
2022-10-22T17:07:12.156Z,6.30
2022-10-22T17:09:41.743Z,5.00
2022-10-22T17:12:11.113Z,6.65
2022-10-22T17:14:40.516Z,5.68
2022-10-22T17:17:09.929Z,3.67
2022-10-22T17:34:40.949Z,3.72
2022-10-22T17:37:11.706Z,5.05
2022-10-22T17:39:41.116Z,5.20
2022-10-22T17:42:10.902Z,4.60
2022-10-22T17:44:40.309Z,5.85
2022-10-22T17:47:09.672Z,6.30
2022-10-22T17:49:40.066Z,7.43
2022-10-22T17:52:12.720Z,7.18
2022-10-22T17:54:42.377Z,5.85
2022-10-22T17:57:13.461Z,6.68
2022-10-22T17:59:42.905Z,9.13
2022-10-22T18:02:18.778Z,10.07
2022-10-22T18:04:52.484Z,9.00
2022-10-22T18:07:24.277Z,6.82
2022-10-22T18:09:53.790Z,8.15
2022-10-22T18:12:23.218Z,7.88
2022-10-22T18:14:52.622Z,8.05
2022-10-22T18:17:21.983Z,7.65
2022-10-22T18:19:51.329Z,8.05
2022-10-22T18:22:20.679Z,9.07
2022-10-22T18:24:52.960Z,7.53
2022-10-22T18:27:22.396Z,5.97
2022-10-22T18:29:51.836Z,6.97
2022-10-22T18:32:21.190Z,4.80
2022-10-22T18:34:50.667Z,6.15
2022-10-22T18:37:20.314Z,4.47
2022-10-22T18:39:51.382Z,5.63
2022-10-22T18:42:20.778Z,7.72
2022-10-22T18:44:51.734Z,4.95
2022-10-22T18:47:21.181Z,4.40
2022-10-22T18:49:51.703Z,7.53
2022-10-22T18:52:21.113Z,6.90
2022-10-22T18:54:51.838Z,6.05
2022-10-22T18:57:21.226Z,4.35
2022-10-22T18:59:50.998Z,5.53
2022-10-22T19:02:20.509Z,9.52
2022-10-22T19:04:49.954Z,6.95
2022-10-22T19:07:19.404Z,6.72
2022-10-22T19:09:49.155Z,5.72
2022-10-22T19:12:21.551Z,9.50
2022-10-22T19:14:51.752Z,6.50
2022-10-22T19:17:21.110Z,7.72
2022-10-22T19:19:50.653Z,8.32
2022-10-22T19:22:20.790Z,6.45
2022-10-22T19:24:50.788Z,7.72
2022-10-22T19:27:21.627Z,11.98
2022-10-22T19:29:51.035Z,7.47
2022-10-22T19:32:20.402Z,9.80
2022-10-22T19:34:49.786Z,12.85
2022-10-22T19:37:19.214Z,11.02
2022-10-22T19:39:50.485Z,8.05
2022-10-22T19:42:21.350Z,10.60
2022-10-22T19:44:50.721Z,10.32
2022-10-22T19:47:20.181Z,8.20
2022-10-22T19:49:49.542Z,11.38
2022-10-22T19:52:18.890Z,10.00
2022-10-22T19:54:48.443Z,12.05
2022-10-22T19:57:21.244Z,10.75
2022-10-22T19:59:50.908Z,8.48
2022-10-22T20:02:20.540Z,9.27
2022-10-22T20:04:50.222Z,11.48
2022-10-22T20:07:19.768Z,13.82
2022-10-22T20:09:49.152Z,14.18
2022-10-22T20:12:18.496Z,15.60
2022-10-22T20:14:49.210Z,12.60
2022-10-22T20:17:18.622Z,11.90
2022-10-22T20:19:48.102Z,13.55
2022-10-22T20:22:18.797Z,17.73
2022-10-22T20:24:48.538Z,13.13
2022-10-22T20:27:17.925Z,10.70
2022-10-22T20:29:48.639Z,12.40
2022-10-22T20:32:18.008Z,9.95
2022-10-22T20:34:47.722Z,14.65
2022-10-22T20:37:17.068Z,15.82
2022-10-22T20:39:46.626Z,12.27
2022-10-22T20:42:16.293Z,12.00
2022-10-22T20:44:45.820Z,14.63
2022-10-22T20:47:16.629Z,10.30
2022-10-22T20:49:45.993Z,14.18
2022-10-22T20:52:15.365Z,13.90
2022-10-22T20:54:45.842Z,15.05
2022-10-22T20:57:15.504Z,14.48
2022-10-22T20:59:45.623Z,13.52
2022-10-22T21:02:16.440Z,15.00
2022-10-22T21:04:46.509Z,11.95
2022-10-22T21:07:15.967Z,11.68
2022-10-22T21:09:45.471Z,14.45
2022-10-22T21:12:14.879Z,13.85
2022-10-22T21:14:44.245Z,11.43
2022-10-22T21:17:13.938Z,11.05
2022-10-22T21:19:44.667Z,8.85
2022-10-22T21:22:14.197Z,10.55
2022-10-22T21:24:43.555Z,11.75
2022-10-22T21:27:13.051Z,9.75
2022-10-22T21:29:42.482Z,11.57
2022-10-22T21:32:12.264Z,9.07
2022-10-22T21:34:41.700Z,10.07
2022-10-22T21:37:13.954Z,8.88
2022-10-22T21:39:43.699Z,8.00
2022-10-22T21:42:16.557Z,7.22
2022-10-22T21:44:46.056Z,8.30
2022-10-22T21:47:17.633Z,13.20
2022-10-22T21:49:47.004Z,9.20
2022-10-22T21:52:18.342Z,10.38
2022-10-22T21:54:47.740Z,9.45
2022-10-22T21:57:17.265Z,7.78
2022-10-22T21:59:46.673Z,6.97
2022-10-22T22:02:16.225Z,7.38
2022-10-22T22:04:45.751Z,12.60
2022-10-22T22:07:15.181Z,9.70
2022-10-22T22:09:46.262Z,8.63
2022-10-22T22:12:16.311Z,8.07
2022-10-22T22:14:45.810Z,10.27
2022-10-22T22:17:16.357Z,7.80
2022-10-22T22:19:46.015Z,10.50
2022-10-22T22:22:15.425Z,10.57
2022-10-22T22:24:50.278Z,8.52
2022-10-22T22:27:40.098Z,12.68
2022-10-22T22:30:23.098Z,15.27
2022-10-22T22:33:06.752Z,9.05
2022-10-22T22:38:17.212Z,8.65
2022-10-22T22:40:48.515Z,8.00
2022-10-22T22:43:20.662Z,8.95
2022-10-22T22:46:02.525Z,10.93
2022-10-22T22:48:32.819Z,9.00
2022-10-22T22:51:04.910Z,9.00
2022-10-22T22:53:36.206Z,7.60
2022-10-22T22:56:11.213Z,10.20
2022-10-22T22:58:42.348Z,12.52
2022-10-22T23:01:20.736Z,7.85
2022-10-22T23:03:56.753Z,7.25
2022-10-22T23:06:28.534Z,9.40
2022-10-22T23:09:01.265Z,8.65
2022-10-22T23:11:32.649Z,9.68
2022-10-22T23:14:06.286Z,12.95
2022-10-22T23:16:40.866Z,9.88
2022-10-22T23:19:11.603Z,14.45
2022-10-22T23:21:47.602Z,13.73
2022-10-22T23:24:21.188Z,14.00
2022-10-22T23:26:57.590Z,8.05
2022-10-22T23:29:33.668Z,8.30
2022-10-22T23:32:09.458Z,10.90
2022-10-22T23:34:39.624Z,8.70
2022-10-22T23:37:11.578Z,9.80
2022-10-22T23:39:41.221Z,9.25
2022-10-22T23:42:12.655Z,12.15
2022-10-22T23:44:43.282Z,12.73
2022-10-22T23:47:13.318Z,9.07
2022-10-22T23:49:43.460Z,12.23
2022-10-22T23:52:15.679Z,9.60
2022-10-22T23:54:45.576Z,10.85
2022-10-22T23:57:16.332Z,10.05
2022-10-22T23:59:48.199Z,8.93
